sensor_id;sensor_type;location;lat;lon;timestamp;P1;durP1;ratioP1;P2;durP2;ratioP2
54743;SDS011;40639;53.170;6.728;2024-03-17T00:02:13;8.95;;;3.33;;
54743;SDS011;40639;53.170;6.728;2024-03-17T00:04:39;9.52;;;3.33;;
54743;SDS011;40639;53.170;6.728;2024-03-17T00:07:06;9.15;;;3.70;;
54743;SDS011;40639;53.170;6.728;2024-03-17T00:09:33;10.75;;;3.50;;
54743;SDS011;40639;53.170;6.728;2024-03-17T00:11:59;10.35;;;3.60;;
54743;SDS011;40639;53.170;6.728;2024-03-17T00:14:25;10.07;;;3.60;;
54743;SDS011;40639;53.170;6.728;2024-03-17T00:16:53;8.43;;;2.90;;
54743;SDS011;40639;53.170;6.728;2024-03-17T00:19:19;10.80;;;3.35;;
54743;SDS011;40639;53.170;6.728;2024-03-17T00:21:47;9.73;;;3.42;;
54743;SDS011;40639;53.170;6.728;2024-03-17T00:24:15;10.80;;;4.32;;
54743;SDS011;40639;53.170;6.728;2024-03-17T00:26:42;9.80;;;3.95;;
54743;SDS011;40639;53.170;6.728;2024-03-17T00:29:08;8.88;;;3.63;;
54743;SDS011;40639;53.170;6.728;2024-03-17T00:31:34;7.35;;;3.30;;
54743;SDS011;40639;53.170;6.728;2024-03-17T00:34:00;7.80;;;3.42;;
54743;SDS011;40639;53.170;6.728;2024-03-17T00:36:26;9.25;;;3.30;;
54743;SDS011;40639;53.170;6.728;2024-03-17T00:38:52;11.80;;;3.75;;
54743;SDS011;40639;53.170;6.728;2024-03-17T00:41:18;8.05;;;3.00;;
54743;SDS011;40639;53.170;6.728;2024-03-17T00:43:46;7.35;;;3.10;;
54743;SDS011;40639;53.170;6.728;2024-03-17T00:46:12;11.38;;;3.25;;
54743;SDS011;40639;53.170;6.728;2024-03-17T00:48:38;10.38;;;3.33;;
54743;SDS011;40639;53.170;6.728;2024-03-17T00:51:04;7.72;;;3.33;;
54743;SDS011;40639;53.170;6.728;2024-03-17T00:53:31;6.53;;;2.95;;
54743;SDS011;40639;53.170;6.728;2024-03-17T00:55:57;8.80;;;3.08;;
54743;SDS011;40639;53.170;6.728;2024-03-17T00:58:23;11.45;;;3.20;;
54743;SDS011;40639;53.170;6.728;2024-03-17T01:00:50;6.32;;;2.70;;
54743;SDS011;40639;53.170;6.728;2024-03-17T01:03:16;8.77;;;3.33;;
54743;SDS011;40639;53.170;6.728;2024-03-17T01:05:43;7.82;;;2.97;;
54743;SDS011;40639;53.170;6.728;2024-03-17T01:08:13;7.50;;;3.15;;
54743;SDS011;40639;53.170;6.728;2024-03-17T01:10:40;7.47;;;3.30;;
54743;SDS011;40639;53.170;6.728;2024-03-17T01:13:07;7.18;;;3.47;;
54743;SDS011;40639;53.170;6.728;2024-03-17T01:15:34;7.93;;;3.78;;
54743;SDS011;40639;53.170;6.728;2024-03-17T01:18:00;11.48;;;3.03;;
54743;SDS011;40639;53.170;6.728;2024-03-17T01:20:27;5.97;;;2.97;;
54743;SDS011;40639;53.170;6.728;2024-03-17T01:22:53;6.30;;;3.10;;
54743;SDS011;40639;53.170;6.728;2024-03-17T01:25:19;8.00;;;3.10;;
54743;SDS011;40639;53.170;6.728;2024-03-17T01:27:45;7.72;;;2.70;;
54743;SDS011;40639;53.170;6.728;2024-03-17T01:30:11;7.20;;;3.15;;
54743;SDS011;40639;53.170;6.728;2024-03-17T01:32:38;7.70;;;3.40;;
54743;SDS011;40639;53.170;6.728;2024-03-17T01:35:04;12.20;;;5.38;;
54743;SDS011;40639;53.170;6.728;2024-03-17T01:37:33;11.23;;;6.07;;
54743;SDS011;40639;53.170;6.728;2024-03-17T01:40:00;14.25;;;6.07;;
54743;SDS011;40639;53.170;6.728;2024-03-17T01:42:26;15.75;;;7.35;;
54743;SDS011;40639;53.170;6.728;2024-03-17T01:44:54;13.52;;;6.18;;
54743;SDS011;40639;53.170;6.728;2024-03-17T01:47:20;11.50;;;5.07;;
54743;SDS011;40639;53.170;6.728;2024-03-17T01:49:47;8.63;;;4.70;;
54743;SDS011;40639;53.170;6.728;2024-03-17T01:52:14;11.60;;;4.38;;
54743;SDS011;40639;53.170;6.728;2024-03-17T01:54:41;11.73;;;5.60;;
54743;SDS011;40639;53.170;6.728;2024-03-17T01:57:07;12.75;;;5.35;;
54743;SDS011;40639;53.170;6.728;2024-03-17T01:59:34;9.07;;;4.68;;
54743;SDS011;40639;53.170;6.728;2024-03-17T02:02:01;18.73;;;4.72;;
54743;SDS011;40639;53.170;6.728;2024-03-17T02:04:28;10.50;;;3.67;;
54743;SDS011;40639;53.170;6.728;2024-03-17T02:06:54;9.15;;;3.55;;
54743;SDS011;40639;53.170;6.728;2024-03-17T02:09:20;9.30;;;3.38;;
54743;SDS011;40639;53.170;6.728;2024-03-17T02:11:47;7.65;;;3.00;;
54743;SDS011;40639;53.170;6.728;2024-03-17T02:14:13;6.80;;;3.20;;
54743;SDS011;40639;53.170;6.728;2024-03-17T02:16:42;8.38;;;3.22;;
54743;SDS011;40639;53.170;6.728;2024-03-17T02:19:08;9.95;;;3.25;;
54743;SDS011;40639;53.170;6.728;2024-03-17T02:21:35;6.28;;;3.20;;
54743;SDS011;40639;53.170;6.728;2024-03-17T02:24:03;6.72;;;3.08;;
54743;SDS011;40639;53.170;6.728;2024-03-17T02:26:29;8.20;;;2.88;;
54743;SDS011;40639;53.170;6.728;2024-03-17T02:28:55;8.57;;;2.33;;
54743;SDS011;40639;53.170;6.728;2024-03-17T02:31:21;6.60;;;2.63;;
54743;SDS011;40639;53.170;6.728;2024-03-17T02:33:47;7.78;;;3.10;;
54743;SDS011;40639;53.170;6.728;2024-03-17T02:36:14;6.72;;;3.53;;
54743;SDS011;40639;53.170;6.728;2024-03-17T02:38:42;7.45;;;2.65;;
54743;SDS011;40639;53.170;6.728;2024-03-17T02:41:27;7.38;;;2.28;;
54743;SDS011;40639;53.170;6.728;2024-03-17T02:43:53;6.72;;;2.50;;
54743;SDS011;40639;53.170;6.728;2024-03-17T02:46:20;6.60;;;2.58;;
54743;SDS011;40639;53.170;6.728;2024-03-17T02:48:49;8.38;;;2.42;;
54743;SDS011;40639;53.170;6.728;2024-03-17T02:51:17;7.00;;;2.20;;
54743;SDS011;40639;53.170;6.728;2024-03-17T02:53:44;6.65;;;2.35;;
54743;SDS011;40639;53.170;6.728;2024-03-17T02:56:11;6.70;;;2.30;;
54743;SDS011;40639;53.170;6.728;2024-03-17T02:58:38;8.60;;;2.10;;
54743;SDS011;40639;53.170;6.728;2024-03-17T03:01:07;5.55;;;2.30;;
54743;SDS011;40639;53.170;6.728;2024-03-17T03:03:35;7.97;;;2.63;;
54743;SDS011;40639;53.170;6.728;2024-03-17T03:06:01;8.38;;;2.50;;
54743;SDS011;40639;53.170;6.728;2024-03-17T03:08:32;6.25;;;2.50;;
54743;SDS011;40639;53.170;6.728;2024-03-17T03:10:59;9.88;;;2.33;;
54743;SDS011;40639;53.170;6.728;2024-03-17T03:13:25;5.82;;;2.08;;
54743;SDS011;40639;53.170;6.728;2024-03-17T03:15:51;5.47;;;2.38;;
54743;SDS011;40639;53.170;6.728;2024-03-17T03:18:18;7.80;;;2.20;;
54743;SDS011;40639;53.170;6.728;2024-03-17T03:20:49;6.43;;;2.35;;
54743;SDS011;40639;53.170;6.728;2024-03-17T03:23:16;4.85;;;2.30;;
54743;SDS011;40639;53.170;6.728;2024-03-17T03:25:42;8.93;;;2.40;;
54743;SDS011;40639;53.170;6.728;2024-03-17T03:28:09;9.35;;;2.75;;
54743;SDS011;40639;53.170;6.728;2024-03-17T03:30:35;7.25;;;2.50;;
54743;SDS011;40639;53.170;6.728;2024-03-17T03:33:02;8.30;;;2.55;;
54743;SDS011;40639;53.170;6.728;2024-03-17T03:35:30;7.05;;;2.30;;
54743;SDS011;40639;53.170;6.728;2024-03-17T03:37:56;5.63;;;2.38;;
54743;SDS011;40639;53.170;6.728;2024-03-17T03:40:22;6.03;;;2.45;;
54743;SDS011;40639;53.170;6.728;2024-03-17T03:42:50;5.97;;;2.53;;
54743;SDS011;40639;53.170;6.728;2024-03-17T03:45:16;7.40;;;2.42;;
54743;SDS011;40639;53.170;6.728;2024-03-17T03:47:42;7.57;;;2.72;;
54743;SDS011;40639;53.170;6.728;2024-03-17T03:50:09;7.43;;;2.58;;
54743;SDS011;40639;53.170;6.728;2024-03-17T03:52:36;6.57;;;2.42;;
54743;SDS011;40639;53.170;6.728;2024-03-17T03:55:03;9.02;;;2.97;;
54743;SDS011;40639;53.170;6.728;2024-03-17T03:57:29;8.27;;;3.25;;
54743;SDS011;40639;53.170;6.728;2024-03-17T03:59:57;8.35;;;2.85;;
54743;SDS011;40639;53.170;6.728;2024-03-17T04:02:23;7.55;;;3.40;;
54743;SDS011;40639;53.170;6.728;2024-03-17T04:04:52;7.05;;;3.65;;
54743;SDS011;40639;53.170;6.728;2024-03-17T04:07:18;9.23;;;3.30;;
54743;SDS011;40639;53.170;6.728;2024-03-17T04:09:45;11.65;;;3.47;;
54743;SDS011;40639;53.170;6.728;2024-03-17T04:12:11;9.38;;;2.92;;
54743;SDS011;40639;53.170;6.728;2024-03-17T04:14:37;8.95;;;3.20;;
54743;SDS011;40639;53.170;6.728;2024-03-17T04:17:03;7.63;;;3.35;;
54743;SDS011;40639;53.170;6.728;2024-03-17T04:19:31;9.10;;;3.67;;
54743;SDS011;40639;53.170;6.728;2024-03-17T04:21:57;9.68;;;3.65;;
54743;SDS011;40639;53.170;6.728;2024-03-17T04:24:23;9.70;;;3.42;;
54743;SDS011;40639;53.170;6.728;2024-03-17T04:26:49;7.80;;;2.90;;
54743;SDS011;40639;53.170;6.728;2024-03-17T04:29:15;9.70;;;3.30;;
54743;SDS011;40639;53.170;6.728;2024-03-17T04:31:41;8.43;;;2.92;;
54743;SDS011;40639;53.170;6.728;2024-03-17T04:34:08;8.85;;;3.05;;
54743;SDS011;40639;53.170;6.728;2024-03-17T04:36:34;8.50;;;3.10;;
54743;SDS011;40639;53.170;6.728;2024-03-17T04:39:01;8.15;;;3.33;;
54743;SDS011;40639;53.170;6.728;2024-03-17T04:41:27;11.32;;;3.60;;
54743;SDS011;40639;53.170;6.728;2024-03-17T04:43:53;5.45;;;2.67;;
54743;SDS011;40639;53.170;6.728;2024-03-17T04:46:19;12.43;;;3.35;;
54743;SDS011;40639;53.170;6.728;2024-03-17T04:48:45;11.30;;;3.60;;
54743;SDS011;40639;53.170;6.728;2024-03-17T04:51:14;8.32;;;3.03;;
54743;SDS011;40639;53.170;6.728;2024-03-17T04:53:41;9.23;;;3.38;;
54743;SDS011;40639;53.170;6.728;2024-03-17T04:56:07;10.20;;;3.28;;
54743;SDS011;40639;53.170;6.728;2024-03-17T04:58:34;10.10;;;3.67;;
54743;SDS011;40639;53.170;6.728;2024-03-17T05:01:07;10.77;;;3.75;;
54743;SDS011;40639;53.170;6.728;2024-03-17T05:03:33;10.57;;;4.10;;
54743;SDS011;40639;53.170;6.728;2024-03-17T05:06:03;9.60;;;3.50;;
54743;SDS011;40639;53.170;6.728;2024-03-17T05:08:29;11.63;;;3.92;;
54743;SDS011;40639;53.170;6.728;2024-03-17T05:10:57;10.48;;;4.10;;
54743;SDS011;40639;53.170;6.728;2024-03-17T05:13:23;9.85;;;4.20;;
54743;SDS011;40639;53.170;6.728;2024-03-17T05:15:49;10.75;;;4.05;;
54743;SDS011;40639;53.170;6.728;2024-03-17T05:18:15;9.80;;;4.03;;
54743;SDS011;40639;53.170;6.728;2024-03-17T05:20:42;9.30;;;3.85;;
54743;SDS011;40639;53.170;6.728;2024-03-17T05:23:08;12.63;;;4.07;;
54743;SDS011;40639;53.170;6.728;2024-03-17T05:25:35;15.18;;;4.20;;
54743;SDS011;40639;53.170;6.728;2024-03-17T05:28:02;12.43;;;4.30;;
54743;SDS011;40639;53.170;6.728;2024-03-17T05:30:29;12.55;;;4.13;;
54743;SDS011;40639;53.170;6.728;2024-03-17T05:32:55;9.63;;;4.70;;
54743;SDS011;40639;53.170;6.728;2024-03-17T05:35:22;10.50;;;4.85;;
54743;SDS011;40639;53.170;6.728;2024-03-17T05:37:50;10.77;;;4.80;;
54743;SDS011;40639;53.170;6.728;2024-03-17T05:40:16;13.05;;;4.18;;
54743;SDS011;40639;53.170;6.728;2024-03-17T05:42:42;9.60;;;4.20;;
54743;SDS011;40639;53.170;6.728;2024-03-17T05:45:09;12.20;;;5.03;;
54743;SDS011;40639;53.170;6.728;2024-03-17T05:47:37;11.82;;;4.50;;
54743;SDS011;40639;53.170;6.728;2024-03-17T05:50:04;9.30;;;4.32;;
54743;SDS011;40639;53.170;6.728;2024-03-17T05:52:30;9.05;;;4.40;;
54743;SDS011;40639;53.170;6.728;2024-03-17T05:54:56;10.23;;;4.43;;
54743;SDS011;40639;53.170;6.728;2024-03-17T05:57:23;7.57;;;3.88;;
54743;SDS011;40639;53.170;6.728;2024-03-17T05:59:49;8.23;;;3.90;;
54743;SDS011;40639;53.170;6.728;2024-03-17T06:02:15;9.27;;;4.15;;
54743;SDS011;40639;53.170;6.728;2024-03-17T06:04:43;12.32;;;3.75;;
54743;SDS011;40639;53.170;6.728;2024-03-17T06:07:10;12.90;;;4.50;;
54743;SDS011;40639;53.170;6.728;2024-03-17T06:09:36;9.80;;;3.97;;
54743;SDS011;40639;53.170;6.728;2024-03-17T06:12:02;12.00;;;3.90;;
54743;SDS011;40639;53.170;6.728;2024-03-17T06:14:28;9.93;;;4.10;;
54743;SDS011;40639;53.170;6.728;2024-03-17T06:16:54;10.80;;;4.32;;
54743;SDS011;40639;53.170;6.728;2024-03-17T06:19:20;9.32;;;3.90;;
54743;SDS011;40639;53.170;6.728;2024-03-17T06:21:47;12.90;;;5.05;;
54743;SDS011;40639;53.170;6.728;2024-03-17T06:24:13;13.07;;;5.10;;
54743;SDS011;40639;53.170;6.728;2024-03-17T06:26:39;12.00;;;3.92;;
54743;SDS011;40639;53.170;6.728;2024-03-17T06:29:05;8.27;;;4.32;;
54743;SDS011;40639;53.170;6.728;2024-03-17T06:31:31;10.27;;;4.70;;
54743;SDS011;40639;53.170;6.728;2024-03-17T06:33:57;11.68;;;4.95;;
54743;SDS011;40639;53.170;6.728;2024-03-17T06:36:24;11.88;;;4.40;;
54743;SDS011;40639;53.170;6.728;2024-03-17T06:38:50;14.52;;;4.55;;
54743;SDS011;40639;53.170;6.728;2024-03-17T06:41:16;10.80;;;4.93;;
54743;SDS011;40639;53.170;6.728;2024-03-17T06:43:43;12.85;;;4.40;;
54743;SDS011;40639;53.170;6.728;2024-03-17T06:46:09;10.40;;;4.32;;
54743;SDS011;40639;53.170;6.728;2024-03-17T06:48:36;11.00;;;4.55;;
54743;SDS011;40639;53.170;6.728;2024-03-17T06:51:02;14.75;;;4.32;;
54743;SDS011;40639;53.170;6.728;2024-03-17T06:53:28;13.13;;;4.75;;
54743;SDS011;40639;53.170;6.728;2024-03-17T06:55:55;16.75;;;6.40;;
54743;SDS011;40639;53.170;6.728;2024-03-17T06:58:22;20.02;;;6.53;;
54743;SDS011;40639;53.170;6.728;2024-03-17T07:01:00;13.88;;;4.95;;
54743;SDS011;40639;53.170;6.728;2024-03-17T07:03:27;13.55;;;4.32;;
54743;SDS011;40639;53.170;6.728;2024-03-17T07:05:54;11.55;;;3.83;;
54743;SDS011;40639;53.170;6.728;2024-03-17T07:08:21;13.55;;;4.20;;
54743;SDS011;40639;53.170;6.728;2024-03-17T07:13:25;12.50;;;3.83;;
54743;SDS011;40639;53.170;6.728;2024-03-17T07:15:54;12.18;;;4.00;;
54743;SDS011;40639;53.170;6.728;2024-03-17T07:18:20;17.50;;;4.18;;
54743;SDS011;40639;53.170;6.728;2024-03-17T07:20:47;12.77;;;4.70;;
54743;SDS011;40639;53.170;6.728;2024-03-17T07:23:14;13.68;;;4.55;;
54743;SDS011;40639;53.170;6.728;2024-03-17T07:25:41;13.00;;;4.72;;
54743;SDS011;40639;53.170;6.728;2024-03-17T07:28:08;13.50;;;4.63;;
54743;SDS011;40639;53.170;6.728;2024-03-17T07:30:34;10.38;;;4.10;;
54743;SDS011;40639;53.170;6.728;2024-03-17T07:33:01;10.25;;;4.13;;
54743;SDS011;40639;53.170;6.728;2024-03-17T07:35:27;10.15;;;4.00;;
54743;SDS011;40639;53.170;6.728;2024-03-17T07:37:53;12.32;;;4.40;;
54743;SDS011;40639;53.170;6.728;2024-03-17T07:40:20;9.88;;;3.42;;
54743;SDS011;40639;53.170;6.728;2024-03-17T07:42:46;9.38;;;3.40;;
54743;SDS011;40639;53.170;6.728;2024-03-17T07:45:12;8.23;;;3.75;;
54743;SDS011;40639;53.170;6.728;2024-03-17T07:47:38;10.38;;;3.03;;
54743;SDS011;40639;53.170;6.728;2024-03-17T07:50:04;8.50;;;2.60;;
54743;SDS011;40639;53.170;6.728;2024-03-17T07:52:31;12.27;;;3.25;;
54743;SDS011;40639;53.170;6.728;2024-03-17T07:54:58;8.77;;;3.05;;
54743;SDS011;40639;53.170;6.728;2024-03-17T07:57:24;12.85;;;3.20;;
54743;SDS011;40639;53.170;6.728;2024-03-17T07:59:50;7.82;;;3.00;;
54743;SDS011;40639;53.170;6.728;2024-03-17T08:02:17;11.13;;;2.97;;
54743;SDS011;40639;53.170;6.728;2024-03-17T08:04:43;8.30;;;2.20;;
54743;SDS011;40639;53.170;6.728;2024-03-17T08:07:10;9.10;;;2.50;;
54743;SDS011;40639;53.170;6.728;2024-03-17T08:09:36;8.70;;;3.35;;
54743;SDS011;40639;53.170;6.728;2024-03-17T08:12:02;6.70;;;2.47;;
54743;SDS011;40639;53.170;6.728;2024-03-17T08:14:29;6.57;;;2.40;;
54743;SDS011;40639;53.170;6.728;2024-03-17T08:16:56;8.13;;;2.60;;
54743;SDS011;40639;53.170;6.728;2024-03-17T08:19:22;9.73;;;3.00;;
54743;SDS011;40639;53.170;6.728;2024-03-17T08:21:48;9.55;;;2.97;;
54743;SDS011;40639;53.170;6.728;2024-03-17T08:24:14;8.95;;;2.63;;
54743;SDS011;40639;53.170;6.728;2024-03-17T08:26:40;8.45;;;2.60;;
54743;SDS011;40639;53.170;6.728;2024-03-17T08:29:06;13.90;;;2.70;;
54743;SDS011;40639;53.170;6.728;2024-03-17T08:31:32;7.70;;;2.75;;
54743;SDS011;40639;53.170;6.728;2024-03-17T08:33:59;5.82;;;2.58;;
54743;SDS011;40639;53.170;6.728;2024-03-17T08:36:25;9.10;;;2.72;;
54743;SDS011;40639;53.170;6.728;2024-03-17T08:38:53;8.38;;;2.58;;
54743;SDS011;40639;53.170;6.728;2024-03-17T08:41:20;5.22;;;2.47;;
54743;SDS011;40639;53.170;6.728;2024-03-17T08:43:46;8.15;;;2.70;;
54743;SDS011;40639;53.170;6.728;2024-03-17T08:46:12;6.28;;;2.10;;
54743;SDS011;40639;53.170;6.728;2024-03-17T08:48:39;6.55;;;2.10;;
54743;SDS011;40639;53.170;6.728;2024-03-17T08:51:07;5.25;;;2.15;;
54743;SDS011;40639;53.170;6.728;2024-03-17T08:53:33;7.45;;;2.53;;
54743;SDS011;40639;53.170;6.728;2024-03-17T08:56:00;7.57;;;2.47;;
54743;SDS011;40639;53.170;6.728;2024-03-17T08:58:29;5.20;;;2.05;;
54743;SDS011;40639;53.170;6.728;2024-03-17T09:00:58;6.70;;;2.22;;
54743;SDS011;40639;53.170;6.728;2024-03-17T09:03:29;7.35;;;1.85;;
54743;SDS011;40639;53.170;6.728;2024-03-17T09:05:55;7.55;;;3.45;;
54743;SDS011;40639;53.170;6.728;2024-03-17T09:08:22;11.60;;;2.53;;
54743;SDS011;40639;53.170;6.728;2024-03-17T09:10:49;6.07;;;2.38;;
54743;SDS011;40639;53.170;6.728;2024-03-17T09:13:17;5.88;;;2.22;;
54743;SDS011;40639;53.170;6.728;2024-03-17T09:18:22;8.10;;;2.65;;
54743;SDS011;40639;53.170;6.728;2024-03-17T09:23:30;7.28;;;2.70;;
54743;SDS011;40639;53.170;6.728;2024-03-17T09:26:00;8.55;;;2.85;;
54743;SDS011;40639;53.170;6.728;2024-03-17T09:28:27;8.57;;;2.40;;
54743;SDS011;40639;53.170;6.728;2024-03-17T09:30:54;6.03;;;2.55;;
54743;SDS011;40639;53.170;6.728;2024-03-17T09:33:24;7.68;;;2.08;;
54743;SDS011;40639;53.170;6.728;2024-03-17T09:35:54;11.15;;;2.88;;
54743;SDS011;40639;53.170;6.728;2024-03-17T09:38:20;8.23;;;3.20;;
54743;SDS011;40639;53.170;6.728;2024-03-17T09:40:47;11.32;;;4.13;;
54743;SDS011;40639;53.170;6.728;2024-03-17T09:43:16;7.03;;;2.55;;
54743;SDS011;40639;53.170;6.728;2024-03-17T09:45:43;9.05;;;3.47;;
54743;SDS011;40639;53.170;6.728;2024-03-17T09:48:10;11.52;;;3.40;;
54743;SDS011;40639;53.170;6.728;2024-03-17T09:50:39;9.35;;;3.70;;
54743;SDS011;40639;53.170;6.728;2024-03-17T09:53:06;11.60;;;3.65;;
54743;SDS011;40639;53.170;6.728;2024-03-17T09:55:40;10.88;;;4.30;;
54743;SDS011;40639;53.170;6.728;2024-03-17T09:58:09;10.63;;;3.08;;
54743;SDS011;40639;53.170;6.728;2024-03-17T10:00:41;11.48;;;4.60;;
54743;SDS011;40639;53.170;6.728;2024-03-17T10:03:07;11.65;;;3.67;;
54743;SDS011;40639;53.170;6.728;2024-03-17T10:05:33;9.30;;;4.18;;
54743;SDS011;40639;53.170;6.728;2024-03-17T10:08:00;10.25;;;4.35;;
54743;SDS011;40639;53.170;6.728;2024-03-17T10:10:26;7.55;;;3.60;;
54743;SDS011;40639;53.170;6.728;2024-03-17T10:12:52;10.63;;;3.67;;
54743;SDS011;40639;53.170;6.728;2024-03-17T10:15:18;12.20;;;5.28;;
54743;SDS011;40639;53.170;6.728;2024-03-17T10:17:48;8.35;;;3.45;;
54743;SDS011;40639;53.170;6.728;2024-03-17T10:20:16;10.25;;;3.75;;
54743;SDS011;40639;53.170;6.728;2024-03-17T10:25:28;10.82;;;3.50;;
54743;SDS011;40639;53.170;6.728;2024-03-17T10:27:54;10.52;;;3.75;;
54743;SDS011;40639;53.170;6.728;2024-03-17T10:30:22;7.25;;;3.97;;
54743;SDS011;40639;53.170;6.728;2024-03-17T10:32:53;11.13;;;4.10;;
54743;SDS011;40639;53.170;6.728;2024-03-17T10:37:59;7.90;;;3.45;;
54743;SDS011;40639;53.170;6.728;2024-03-17T10:40:26;8.30;;;3.92;;
54743;SDS011;40639;53.170;6.728;2024-03-17T10:42:52;13.43;;;3.63;;
54743;SDS011;40639;53.170;6.728;2024-03-17T10:45:19;8.30;;;4.32;;
54743;SDS011;40639;53.170;6.728;2024-03-17T10:47:47;8.68;;;4.30;;
54743;SDS011;40639;53.170;6.728;2024-03-17T10:50:18;11.75;;;4.45;;
54743;SDS011;40639;53.170;6.728;2024-03-17T10:52:45;12.43;;;4.68;;
54743;SDS011;40639;53.170;6.728;2024-03-17T10:55:18;10.63;;;4.68;;
54743;SDS011;40639;53.170;6.728;2024-03-17T10:57:45;8.75;;;4.40;;
54743;SDS011;40639;53.170;6.728;2024-03-17T11:00:16;9.52;;;4.60;;
54743;SDS011;40639;53.170;6.728;2024-03-17T11:02:44;9.35;;;4.68;;
54743;SDS011;40639;53.170;6.728;2024-03-17T11:05:13;9.38;;;4.93;;
54743;SDS011;40639;53.170;6.728;2024-03-17T11:07:39;8.32;;;4.30;;
54743;SDS011;40639;53.170;6.728;2024-03-17T11:12:47;13.20;;;5.53;;
54743;SDS011;40639;53.170;6.728;2024-03-17T11:23:33;13.50;;;6.30;;
54743;SDS011;40639;53.170;6.728;2024-03-17T11:26:00;10.63;;;5.97;;
54743;SDS011;40639;53.170;6.728;2024-03-17T11:33:53;12.07;;;5.57;;
54743;SDS011;40639;53.170;6.728;2024-03-17T11:38:55;9.25;;;5.50;;
54743;SDS011;40639;53.170;6.728;2024-03-17T11:46:45;9.65;;;6.45;;
54743;SDS011;40639;53.170;6.728;2024-03-17T11:49:19;12.65;;;6.40;;
54743;SDS011;40639;53.170;6.728;2024-03-17T11:51:46;11.45;;;6.30;;
54743;SDS011;40639;53.170;6.728;2024-03-17T11:54:13;10.98;;;6.45;;
54743;SDS011;40639;53.170;6.728;2024-03-17T11:56:44;10.02;;;5.78;;
54743;SDS011;40639;53.170;6.728;2024-03-17T11:59:10;8.90;;;5.35;;
54743;SDS011;40639;53.170;6.728;2024-03-17T12:01:37;9.52;;;5.90;;
54743;SDS011;40639;53.170;6.728;2024-03-17T12:04:06;7.75;;;5.15;;
54743;SDS011;40639;53.170;6.728;2024-03-17T12:06:33;8.23;;;5.30;;
54743;SDS011;40639;53.170;6.728;2024-03-17T12:09:10;11.73;;;6.15;;
54743;SDS011;40639;53.170;6.728;2024-03-17T12:11:36;10.95;;;6.15;;
54743;SDS011;40639;53.170;6.728;2024-03-17T12:14:13;9.65;;;5.80;;
54743;SDS011;40639;53.170;6.728;2024-03-17T12:16:49;11.43;;;5.68;;
54743;SDS011;40639;53.170;6.728;2024-03-17T12:19:16;13.50;;;6.57;;
54743;SDS011;40639;53.170;6.728;2024-03-17T12:21:44;9.25;;;5.93;;
54743;SDS011;40639;53.170;6.728;2024-03-17T12:24:14;12.68;;;7.10;;
54743;SDS011;40639;53.170;6.728;2024-03-17T12:26:41;11.93;;;7.18;;
54743;SDS011;40639;53.170;6.728;2024-03-17T12:31:50;13.07;;;7.50;;
54743;SDS011;40639;53.170;6.728;2024-03-17T12:34:20;11.27;;;7.53;;
54743;SDS011;40639;53.170;6.728;2024-03-17T12:36:46;13.45;;;7.78;;
54743;SDS011;40639;53.170;6.728;2024-03-17T12:39:21;14.13;;;7.82;;
54743;SDS011;40639;53.170;6.728;2024-03-17T12:42:00;12.40;;;7.82;;
54743;SDS011;40639;53.170;6.728;2024-03-17T12:44:28;13.60;;;8.07;;
54743;SDS011;40639;53.170;6.728;2024-03-17T12:46:58;13.00;;;7.57;;
54743;SDS011;40639;53.170;6.728;2024-03-17T12:49:25;13.23;;;7.97;;
54743;SDS011;40639;53.170;6.728;2024-03-17T12:51:52;11.77;;;7.22;;
54743;SDS011;40639;53.170;6.728;2024-03-17T12:54:20;13.88;;;7.93;;
54743;SDS011;40639;53.170;6.728;2024-03-17T12:56:46;13.13;;;8.02;;
54743;SDS011;40639;53.170;6.728;2024-03-17T12:59:40;13.80;;;7.70;;
54743;SDS011;40639;53.170;6.728;2024-03-17T13:02:30;12.68;;;6.95;;
54743;SDS011;40639;53.170;6.728;2024-03-17T13:07:52;13.25;;;7.22;;
54743;SDS011;40639;53.170;6.728;2024-03-17T13:10:21;12.38;;;6.82;;
54743;SDS011;40639;53.170;6.728;2024-03-17T13:12:48;12.27;;;6.93;;
54743;SDS011;40639;53.170;6.728;2024-03-17T13:15:15;13.05;;;7.47;;
54743;SDS011;40639;53.170;6.728;2024-03-17T13:17:45;11.63;;;6.70;;
54743;SDS011;40639;53.170;6.728;2024-03-17T13:20:14;12.90;;;6.63;;
54743;SDS011;40639;53.170;6.728;2024-03-17T13:22:41;9.88;;;6.93;;
54743;SDS011;40639;53.170;6.728;2024-03-17T13:25:12;11.25;;;7.00;;
54743;SDS011;40639;53.170;6.728;2024-03-17T13:27:40;11.95;;;7.75;;
54743;SDS011;40639;53.170;6.728;2024-03-17T13:30:07;12.90;;;7.32;;
54743;SDS011;40639;53.170;6.728;2024-03-17T13:32:34;12.18;;;7.72;;
54743;SDS011;40639;53.170;6.728;2024-03-17T13:35:01;12.85;;;7.28;;
54743;SDS011;40639;53.170;6.728;2024-03-17T13:37:27;11.73;;;6.50;;
54743;SDS011;40639;53.170;6.728;2024-03-17T13:39:54;11.00;;;7.05;;
54743;SDS011;40639;53.170;6.728;2024-03-17T13:42:20;11.98;;;7.20;;
54743;SDS011;40639;53.170;6.728;2024-03-17T13:44:46;12.40;;;7.25;;
54743;SDS011;40639;53.170;6.728;2024-03-17T13:47:14;11.55;;;7.22;;
54743;SDS011;40639;53.170;6.728;2024-03-17T13:49:40;11.68;;;6.88;;
54743;SDS011;40639;53.170;6.728;2024-03-17T13:52:06;10.95;;;6.72;;
54743;SDS011;40639;53.170;6.728;2024-03-17T13:54:33;13.88;;;6.57;;
54743;SDS011;40639;53.170;6.728;2024-03-17T13:56:59;11.15;;;6.68;;
54743;SDS011;40639;53.170;6.728;2024-03-17T13:59:27;10.48;;;6.60;;
54743;SDS011;40639;53.170;6.728;2024-03-17T14:01:54;12.50;;;6.25;;
54743;SDS011;40639;53.170;6.728;2024-03-17T14:04:21;10.68;;;6.50;;
54743;SDS011;40639;53.170;6.728;2024-03-17T14:06:47;9.13;;;6.20;;
54743;SDS011;40639;53.170;6.728;2024-03-17T14:09:14;9.80;;;5.78;;
54743;SDS011;40639;53.170;6.728;2024-03-17T14:11:42;13.15;;;6.32;;
54743;SDS011;40639;53.170;6.728;2024-03-17T14:14:10;10.20;;;6.22;;
54743;SDS011;40639;53.170;6.728;2024-03-17T14:16:36;10.18;;;6.05;;
54743;SDS011;40639;53.170;6.728;2024-03-17T14:19:02;10.02;;;5.78;;
54743;SDS011;40639;53.170;6.728;2024-03-17T14:21:28;11.38;;;6.43;;
54743;SDS011;40639;53.170;6.728;2024-03-17T14:23:55;12.15;;;6.80;;
54743;SDS011;40639;53.170;6.728;2024-03-17T14:26:21;9.82;;;6.05;;
54743;SDS011;40639;53.170;6.728;2024-03-17T14:28:48;11.23;;;6.28;;
54743;SDS011;40639;53.170;6.728;2024-03-17T14:31:19;10.35;;;5.78;;
54743;SDS011;40639;53.170;6.728;2024-03-17T14:33:46;10.70;;;5.78;;
54743;SDS011;40639;53.170;6.728;2024-03-17T14:36:12;8.13;;;5.38;;
54743;SDS011;40639;53.170;6.728;2024-03-17T14:38:38;10.93;;;6.25;;
54743;SDS011;40639;53.170;6.728;2024-03-17T14:41:04;10.95;;;6.72;;
54743;SDS011;40639;53.170;6.728;2024-03-17T14:43:31;10.45;;;5.93;;
54743;SDS011;40639;53.170;6.728;2024-03-17T14:46:00;10.48;;;6.10;;
54743;SDS011;40639;53.170;6.728;2024-03-17T14:48:26;10.77;;;6.30;;
54743;SDS011;40639;53.170;6.728;2024-03-17T14:50:52;10.60;;;6.45;;
54743;SDS011;40639;53.170;6.728;2024-03-17T14:53:19;9.23;;;6.22;;
54743;SDS011;40639;53.170;6.728;2024-03-17T14:55:45;11.60;;;6.90;;
54743;SDS011;40639;53.170;6.728;2024-03-17T14:58:11;13.02;;;6.55;;
54743;SDS011;40639;53.170;6.728;2024-03-17T15:00:37;10.80;;;7.18;;
54743;SDS011;40639;53.170;6.728;2024-03-17T15:03:04;12.30;;;7.22;;
54743;SDS011;40639;53.170;6.728;2024-03-17T15:05:32;9.88;;;5.95;;
54743;SDS011;40639;53.170;6.728;2024-03-17T15:07:59;13.85;;;6.97;;
54743;SDS011;40639;53.170;6.728;2024-03-17T15:10:25;14.57;;;6.63;;
54743;SDS011;40639;53.170;6.728;2024-03-17T15:12:52;14.02;;;7.40;;
54743;SDS011;40639;53.170;6.728;2024-03-17T15:15:19;12.50;;;7.15;;
54743;SDS011;40639;53.170;6.728;2024-03-17T15:17:45;12.52;;;7.10;;
54743;SDS011;40639;53.170;6.728;2024-03-17T15:20:14;11.73;;;6.30;;
54743;SDS011;40639;53.170;6.728;2024-03-17T15:22:47;10.40;;;6.85;;
54743;SDS011;40639;53.170;6.728;2024-03-17T15:25:14;12.43;;;6.72;;